Time;durP1;ratioP1;P1;durP2;ratioP2;P2;SDS_P1;SDS_P2;PMS_P1;PMS_P2;Temp;Humidity;BMP_temperature;BMP_pressure;BME280_temperature;BME280_humidity;BME280_pressure;Samples;Min_cycle;Max_cycle;Signal;HPM_P1;HPM_P2
2024/01/13 00:02:06;;;;;;;24.90;10.13;;;;;;;-5.69;68.79;94295.00;5081582;28;20043;-77
2024/01/13 00:04:31;;;;;;;25.13;10.23;;;;;;;-5.70;68.59;94293.41;5082570;28;20039;-77
2024/01/13 00:06:57;;;;;;;29.58;9.98;;;;;;;-5.65;68.75;94301.41;5082352;28;20016;-77
2024/01/13 00:09:22;;;;;;;23.63;9.82;;;;;;;-5.71;68.46;94312.59;5082624;28;20025;-78
2024/01/13 00:11:48;;;;;;;24.95;9.77;;;;;;;-5.78;67.92;94288.41;5081304;28;20236;-77
2024/01/13 00:14:13;;;;;;;24.50;9.07;;;;;;;-5.66;67.72;94295.41;5082458;28;20021;-75
2024/01/13 00:16:38;;;;;;;19.55;7.65;;;;;;;-5.70;67.70;94288.19;5082428;28;20235;-76
2024/01/13 00:19:05;;;;;;;16.85;6.50;;;;;;;-5.80;66.87;94287.81;5082466;28;20067;-76
2024/01/13 00:21:30;;;;;;;23.73;8.38;;;;;;;-5.72;67.60;94295.41;5082190;28;20027;-76
2024/01/13 00:23:56;;;;;;;24.48;9.48;;;;;;;-5.71;66.81;94277.03;5082294;28;20235;-77
2024/01/13 00:26:22;;;;;;;25.40;9.07;;;;;;;-5.66;66.32;94289.41;5082561;28;20338;-76
2024/01/13 00:28:47;;;;;;;23.17;8.75;;;;;;;-5.59;67.19;94285.00;5082448;28;20024;-76
2024/01/13 00:31:13;;;;;;;18.98;8.30;;;;;;;-5.61;66.71;94287.00;5082735;28;20048;-76
2024/01/13 00:33:43;;;;;;;24.08;9.95;;;;;;;-5.63;66.43;94296.00;5082129;28;20020;-76
2024/01/13 00:36:09;;;;;;;29.67;9.70;;;;;;;-5.74;66.32;94276.63;5083215;28;20025;-76
2024/01/13 00:38:35;;;;;;;21.80;9.18;;;;;;;-5.70;66.61;94288.19;5085946;28;20035;-76
2024/01/13 00:41:00;;;;;;;25.63;10.18;;;;;;;-5.71;66.69;94284.03;5085981;28;20016;-77
2024/01/13 00:43:26;;;;;;;24.70;10.57;;;;;;;-5.81;67.26;94281.03;5085894;28;20087;-76
2024/01/13 00:45:52;;;;;;;31.75;11.23;;;;;;;-5.81;67.43;94276.63;5085929;28;20040;-77
2024/01/13 00:48:17;;;;;;;26.50;10.65;;;;;;;-5.80;67.64;94282.63;5085772;28;20099;-77
2024/01/13 00:50:43;;;;;;;20.70;7.85;;;;;;;-5.80;67.91;94269.63;5086019;28;20095;-77
2024/01/13 00:53:08;;;;;;;22.65;9.10;;;;;;;-5.79;67.81;94271.25;5085859;28;20028;-78
2024/01/13 00:55:33;;;;;;;26.85;9.48;;;;;;;-5.80;68.07;94256.66;5085706;28;20036;-78
2024/01/13 00:57:59;;;;;;;24.13;7.72;;;;;;;-5.85;68.29;94260.66;5084803;28;20051;-77
2024/01/13 01:00:24;;;;;;;24.73;10.00;;;;;;;-5.78;68.38;94252.88;5084722;28;20065;-75
2024/01/13 01:02:50;;;;;;;23.17;9.48;;;;;;;-5.76;68.51;94266.47;5085799;28;20017;-78
2024/01/13 01:05:15;;;;;;;24.45;9.68;;;;;;;-5.75;68.62;94275.03;5085769;28;20009;-78
2024/01/13 01:07:40;;;;;;;24.33;10.50;;;;;;;-5.83;68.53;94260.47;5086004;28;20307;-78
2024/01/13 01:10:06;;;;;;;33.67;11.70;;;;;;;-5.80;68.74;94261.84;5084432;28;20040;-78
2024/01/13 01:12:32;;;;;;;32.40;10.68;;;;;;;-5.73;68.94;94260.06;5085403;28;20040;-78
2024/01/13 01:14:57;;;;;;;30.52;9.35;;;;;;;-5.70;68.89;94268.25;5085497;28;20047;-78
2024/01/13 01:17:23;;;;;;;27.95;11.35;;;;;;;-5.70;68.53;94257.03;5085542;28;20047;-78
2024/01/13 01:19:48;;;;;;;22.30;9.13;;;;;;;-5.67;69.35;94254.84;5085298;28;20016;-78
2024/01/13 01:22:14;;;;;;;27.15;9.60;;;;;;;-5.67;69.21;94246.25;5085355;28;20026;-78
2024/01/13 01:24:39;;;;;;;26.80;10.98;;;;;;;-5.71;68.98;94245.06;5085486;28;20103;-78
2024/01/13 01:27:05;;;;;;;26.10;10.98;;;;;;;-5.69;68.95;94243.06;5085363;28;20196;-78
2024/01/13 01:29:30;;;;;;;31.48;11.60;;;;;;;-5.76;69.22;94242.28;5085430;28;20027;-78
2024/01/13 01:31:55;;;;;;;26.00;10.23;;;;;;;-5.66;69.58;94242.66;5084249;28;20065;-78
2024/01/13 01:34:21;;;;;;;34.97;12.55;;;;;;;-5.74;68.85;94254.06;5085029;28;20088;-78
2024/01/13 01:36:46;;;;;;;23.92;9.73;;;;;;;-5.75;69.31;94228.31;5084847;28;20224;-78
2024/01/13 01:39:11;;;;;;;26.67;9.88;;;;;;;-5.81;68.40;94236.91;5085151;28;20020;-78
2024/01/13 01:41:37;;;;;;;21.13;9.50;;;;;;;-5.76;68.54;94224.09;5084896;28;20258;-78
2024/01/13 01:44:02;;;;;;;21.52;8.40;;;;;;;-5.80;68.69;94212.53;5084687;28;20012;-78
2024/01/13 01:46:31;;;;;;;28.05;10.55;;;;;;;-5.84;68.48;94222.53;5084809;28;20036;-78
2024/01/13 01:48:59;;;;;;;32.47;11.32;;;;;;;-5.87;68.63;94234.09;5085112;28;20254;-78
2024/01/13 01:51:26;;;;;;;24.38;10.05;;;;;;;-5.88;68.66;94239.53;5084693;28;20043;-78
2024/01/13 01:53:52;;;;;;;24.35;10.68;;;;;;;-5.80;68.61;94238.47;5084533;28;20074;-78
2024/01/13 01:56:22;;;;;;;24.13;8.60;;;;;;;-5.81;68.21;94255.88;5084486;28;20016;-78
2024/01/13 01:58:50;;;;;;;30.42;10.93;;;;;;;-5.80;68.15;94243.69;5084590;28;20096;-78
2024/01/13 02:01:17;;;;;;;26.83;10.23;;;;;;;-5.85;68.37;94250.28;5084606;28;20170;-78
2024/01/13 02:03:42;;;;;;;28.60;10.40;;;;;;;-5.81;68.36;94247.28;5084590;28;20028;-78
2024/01/13 02:06:08;;;;;;;25.77;10.85;;;;;;;-5.77;67.99;94264.84;5084792;28;20017;-77
2024/01/13 02:08:33;;;;;;;30.80;10.32;;;;;;;-5.79;68.18;94256.47;5084394;28;20020;-78
2024/01/13 02:10:59;;;;;;;23.45;9.88;;;;;;;-5.83;67.61;94237.09;5084261;28;20044;-78
2024/01/13 02:13:24;;;;;;;18.98;9.35;;;;;;;-5.85;68.17;94229.50;5084207;28;20175;-78
2024/01/13 02:15:49;;;;;;;27.05;9.50;;;;;;;-5.80;68.63;94225.50;5084117;28;20096;-78
2024/01/13 02:18:15;;;;;;;21.02;8.95;;;;;;;-5.88;68.12;94236.94;5084147;28;20069;-78
2024/01/13 02:20:40;;;;;;;24.42;9.75;;;;;;;-5.86;68.61;94243.50;5084337;28;20425;-78
2024/01/13 02:23:06;;;;;;;28.63;10.73;;;;;;;-5.88;68.38;94249.91;5083892;28;20091;-77
2024/01/13 02:25:31;;;;;;;27.25;9.80;;;;;;;-5.88;69.18;94224.72;5099719;28;20021;-77
2024/01/13 02:27:56;;;;;;;27.38;10.63;;;;;;;-5.88;68.76;94222.13;5083993;28;20097;-77
2024/01/13 02:30:22;;;;;;;27.60;10.93;;;;;;;-5.80;68.99;94215.13;5083841;28;20028;-77
2024/01/13 02:32:47;;;;;;;32.85;11.07;;;;;;;-5.78;69.40;94202.72;5083642;28;20270;-77
2024/01/13 02:35:12;;;;;;;25.25;10.65;;;;;;;-5.80;69.51;94207.34;5083808;28;20078;-77
2024/01/13 02:37:38;;;;;;;29.58;10.98;;;;;;;-5.87;68.93;94210.75;5084057;28;20344;-77
2024/01/13 02:40:04;;;;;;;29.42;11.10;;;;;;;-5.89;69.45;94215.34;5083950;28;20056;-77
2024/01/13 02:42:29;;;;;;;35.08;12.63;;;;;;;-5.90;69.38;94218.94;5083594;28;20373;-77
2024/01/13 02:44:55;;;;;;;30.50;11.15;;;;;;;-5.92;69.72;94225.31;5083584;28;20090;-77
2024/01/13 02:47:36;;;;;;;24.67;11.05;;;;;;;-5.94;69.59;94197.00;5083704;28;20239;-77
2024/01/13 02:50:01;;;;;;;24.93;9.53;;;;;;;-5.92;69.78;94202.78;5083820;28;20246;-77
2024/01/13 02:52:26;;;;;;;26.08;9.15;;;;;;;-5.95;69.61;94203.19;5083387;28;20020;-77
2024/01/13 02:54:52;;;;;;;28.77;11.10;;;;;;;-5.94;69.54;94209.97;5083443;28;20204;-78
2024/01/13 02:57:17;;;;;;;26.08;10.43;;;;;;;-5.96;69.52;94209.41;5083576;28;20058;-78
2024/01/13 02:59:43;;;;;;;28.90;10.68;;;;;;;-5.92;69.77;94212.34;5083023;28;20368;-78
2024/01/13 03:02:08;;;;;;;24.98;10.45;;;;;;;-5.93;69.49;94216.75;5083253;28;20020;-78
2024/01/13 03:04:33;;;;;;;28.23;9.90;;;;;;;-5.82;69.76;94214.53;5083344;28;20024;-78
2024/01/13 03:06:59;;;;;;;30.65;11.68;;;;;;;-5.77;69.51;94212.91;5083379;28;20016;-78
2024/01/13 03:09:24;;;;;;;22.70;10.27;;;;;;;-5.77;69.86;94214.72;5083446;28;20311;-78
2024/01/13 03:11:49;;;;;;;23.25;9.90;;;;;;;-5.71;69.27;94224.31;5083083;28;20040;-78
2024/01/13 03:14:15;;;;;;;27.80;11.30;;;;;;;-5.72;69.44;94227.88;5083108;28;20024;-77
2024/01/13 03:16:40;;;;;;;30.45;12.70;;;;;;;-5.66;69.73;94237.47;5083669;28;20325;-77
2024/01/13 03:19:06;;;;;;;21.15;10.10;;;;;;;-5.62;70.22;94238.66;5083293;28;20337;-77
2024/01/13 03:21:31;;;;;;;29.48;9.88;;;;;;;-5.49;70.37;94264.59;5082992;28;20028;-77
2024/01/13 03:23:57;;;;;;;33.80;12.15;;;;;;;-5.53;69.97;94241.84;5082860;28;20025;-76
2024/01/13 03:26:22;;;;;;;32.83;12.55;;;;;;;-5.56;70.26;94243.03;5083035;28;20012;-77
2024/01/13 03:28:47;;;;;;;25.55;10.05;;;;;;;-5.57;70.61;94249.25;5082677;28;20028;-77
2024/01/13 03:31:13;;;;;;;31.65;12.52;;;;;;;-5.44;70.39;94246.59;5083041;28;20119;-78
2024/01/13 03:33:39;;;;;;;27.65;10.63;;;;;;;-5.45;69.98;94245.00;5082607;28;20024;-78
2024/01/13 03:36:05;;;;;;;34.20;10.43;;;;;;;-5.49;69.39;94249.03;5082777;28;20021;-78
2024/01/13 03:38:30;;;;;;;35.85;10.90;;;;;;;-5.46;69.54;94253.00;5082696;28;20310;-78
2024/01/13 03:40:55;;;;;;;28.92;9.77;;;;;;;-5.41;69.19;94250.59;5082784;28;20364;-78
2024/01/13 03:43:21;;;;;;;27.83;10.85;;;;;;;-5.41;69.17;94253.19;5082822;28;20040;-79
2024/01/13 03:45:46;;;;;;;32.58;12.25;;;;;;;-5.36;68.81;94247.38;5082673;28;20082;-78
2024/01/13 03:48:12;;;;;;;30.27;10.70;;;;;;;-5.35;68.38;94248.97;5082994;28;20139;-78
2024/01/13 03:50:37;;;;;;;24.20;10.60;;;;;;;-5.47;68.65;94235.84;5082569;28;20095;-78
2024/01/13 03:53:03;;;;;;;36.42;12.50;;;;;;;-5.52;67.90;94233.03;5082759;28;20024;-79
2024/01/13 03:55:28;;;;;;;31.67;12.73;;;;;;;-5.49;68.19;94225.63;5082518;28;20028;-78
2024/01/13 03:57:54;;;;;;;30.23;11.13;;;;;;;-5.49;68.25;94238.63;5082719;28;20024;-77
2024/01/13 04:00:19;;;;;;;29.90;10.05;;;;;;;-5.51;66.98;94234.66;5082600;28;20070;-77
2024/01/13 04:02:44;;;;;;;20.13;7.65;;;;;;;-5.53;66.70;94237.44;5082451;28;20024;-77
2024/01/13 04:05:10;;;;;;;24.73;10.05;;;;;;;-5.53;67.43;94223.66;5082394;28;20021;-77
2024/01/13 04:07:35;;;;;;;25.88;10.57;;;;;;;-5.57;67.27;94225.88;5082609;28;20059;-78
2024/01/13 04:10:01;;;;;;;29.42;11.30;;;;;;;-5.49;69.82;94227.44;5082495;28;20333;-77
2024/01/13 04:12:26;;;;;;;25.30;9.90;;;;;;;-5.51;71.02;94227.66;5085561;28;20408;-78
2024/01/13 04:14:51;;;;;;;29.95;12.05;;;;;;;-5.61;71.65;94218.69;5086105;28;20032;-78
2024/01/13 04:17:18;;;;;;;33.30;13.48;;;;;;;-5.63;71.88;94226.69;5086679;28;20048;-79
2024/01/13 04:19:43;;;;;;;32.90;11.82;;;;;;;-5.68;72.15;94229.91;5086577;28;20020;-78
2024/01/13 04:22:09;;;;;;;26.70;11.15;;;;;;;-5.69;72.17;94230.88;5086563;28;20062;-79
2024/01/13 04:24:34;;;;;;;24.88;10.85;;;;;;;-5.72;71.88;94231.31;5086441;28;20425;-78
2024/01/13 04:27:00;;;;;;;27.65;12.18;;;;;;;-5.82;71.73;94243.91;5086379;28;20020;-78
2024/01/13 04:29:25;;;;;;;24.92;9.38;;;;;;;-5.80;71.86;94249.69;5086383;28;20036;-78
2024/01/13 04:31:50;;;;;;;22.95;11.00;;;;;;;-5.79;71.87;94260.88;5086536;28;20329;-77
2024/01/13 04:34:16;;;;;;;40.13;12.80;;;;;;;-5.79;71.52;94264.25;5086343;28;20050;-77
2024/01/13 04:36:41;;;;;;;28.35;10.95;;;;;;;-5.76;71.33;94266.47;5085108;28;20031;-77
2024/01/13 04:39:07;;;;;;;40.50;14.40;;;;;;;-5.77;70.66;94256.28;5086029;28;20099;-78
2024/01/13 04:41:32;;;;;;;31.33;11.15;;;;;;;-5.72;70.82;94262.47;5086016;28;20013;-77
2024/01/13 04:43:57;;;;;;;26.17;11.10;;;;;;;-5.71;69.41;94273.63;5086844;28;20021;-79
2024/01/13 04:46:23;;;;;;;24.05;10.77;;;;;;;-5.81;68.57;94274.03;5088626;28;20045;-77
2024/01/13 04:48:48;;;;;;;25.23;9.75;;;;;;;-5.80;67.95;94275.66;5085883;28;20016;-79
2024/01/13 04:51:14;;;;;;;31.52;10.57;;;;;;;-5.88;68.32;94283.66;5086209;28;20078;-78
2024/01/13 04:53:39;;;;;;;20.85;8.65;;;;;;;-5.86;67.49;94286.84;5085125;28;20024;-78
2024/01/13 04:56:05;;;;;;;29.15;10.50;;;;;;;-5.88;67.22;94279.25;5086098;28;20153;-78
2024/01/13 04:58:31;;;;;;;27.63;10.70;;;;;;;-5.92;66.97;94290.22;5085159;28;20091;-77
2024/01/13 05:00:56;;;;;;;26.63;9.00;;;;;;;-5.87;66.88;94277.44;5086170;28;20122;-77
2024/01/13 05:03:22;;;;;;;21.95;8.18;;;;;;;-5.92;67.29;94267.66;5086527;28;20016;-78
2024/01/13 05:05:47;;;;;;;25.73;9.55;;;;;;;-5.87;67.27;94275.63;5088370;28;20319;-78
2024/01/13 05:08:12;;;;;;;24.00;10.20;;;;;;;-5.94;66.22;94272.25;5087376;28;20039;-77
2024/01/13 05:10:39;;;;;;;19.80;9.48;;;;;;;-5.98;66.51;94281.47;5088427;28;20330;-79
2024/01/13 05:13:04;;;;;;;30.80;9.63;;;;;;;-5.96;67.06;94289.88;5088393;28;20058;-76
2024/01/13 05:15:36;;;;;;;26.50;10.68;;;;;;;-6.03;66.79;94275.28;5087761;28;20020;-78
2024/01/13 05:18:01;;;;;;;23.23;9.93;;;;;;;-6.10;66.86;94263.09;5087378;28;20087;-76
2024/01/13 05:20:27;;;;;;;24.92;9.95;;;;;;;-6.13;67.17;94255.72;5086928;28;20302;-77
2024/01/13 05:22:52;;;;;;;25.48;9.98;;;;;;;-6.12;66.96;94246.16;5087203;28;20252;-76
2024/01/13 05:25:17;;;;;;;23.35;9.27;;;;;;;-6.22;67.26;94245.75;5087533;28;20021;-76
2024/01/13 05:27:43;;;;;;;25.08;10.25;;;;;;;-6.22;67.19;94235.38;5088357;28;20314;-79
2024/01/13 05:30:09;;;;;;;17.08;8.80;;;;;;;-6.20;67.51;94226.38;5088759;28;20027;-75
2024/01/13 05:32:36;;;;;;;18.75;8.48;;;;;;;-6.28;67.40;94239.56;5088897;28;20041;-78
2024/01/13 05:35:02;;;;;;;21.67;9.00;;;;;;;-6.33;67.54;94226.38;5087345;28;20021;-77
2024/01/13 05:37:27;;;;;;;23.33;8.68;;;;;;;-6.37;68.00;94238.16;5087157;28;20069;-77
2024/01/13 05:39:53;;;;;;;19.77;8.43;;;;;;;-6.29;68.20;94230.16;5086987;28;20052;-77
2024/01/13 05:42:18;;;;;;;23.05;8.52;;;;;;;-6.28;67.93;94248.13;5086390;28;20016;-77
2024/01/13 05:44:44;;;;;;;24.95;9.77;;;;;;;-6.30;67.89;94244.94;5085802;28;20094;-77
2024/01/13 05:47:09;;;;;;;25.70;10.40;;;;;;;-6.29;67.54;94233.59;5085771;28;20026;-77
2024/01/13 05:49:35;;;;;;;20.73;8.63;;;;;;;-6.22;67.66;94250.94;5085921;28;20081;-78
2024/01/13 05:52:01;;;;;;;19.92;7.95;;;;;;;-6.29;67.85;94259.53;5087653;28;20028;-79
2024/01/13 05:54:29;;;;;;;23.55;10.90;;;;;;;-6.32;68.15;94254.72;5088495;28;20028;-78
2024/01/13 05:56:54;;;;;;;19.65;9.57;;;;;;;-6.29;67.68;94269.91;5087164;28;20027;-77
2024/01/13 05:59:19;;;;;;;27.30;8.73;;;;;;;-6.26;68.04;94269.50;5086912;28;20215;-78
2024/01/13 06:01:45;;;;;;;22.48;8.63;;;;;;;-6.25;67.35;94265.09;5086479;28;20016;-78
2024/01/13 06:04:10;;;;;;;20.98;9.52;;;;;;;-6.21;67.74;94255.91;5085148;28;20095;-77
2024/01/13 06:06:36;;;;;;;26.50;9.90;;;;;;;-6.18;67.41;94254.72;5085026;28;20021;-79
2024/01/13 06:09:01;;;;;;;20.25;8.32;;;;;;;-6.26;67.47;94258.31;5085909;28;20020;-79
2024/01/13 06:11:26;;;;;;;18.00;8.90;;;;;;;-6.23;67.92;94251.94;5085328;28;20059;-78
2024/01/13 06:13:53;;;;;;;24.80;9.85;;;;;;;-6.34;68.40;94240.34;5085154;28;20040;-76
2024/01/13 06:16:18;;;;;;;21.73;8.25;;;;;;;-6.31;68.57;94261.53;5085107;28;20024;-77
2024/01/13 06:18:44;;;;;;;19.20;8.60;;;;;;;-6.27;68.74;94252.34;5085008;28;20071;-77
2024/01/13 06:21:09;;;;;;;25.92;9.50;;;;;;;-6.21;68.33;94255.13;5084597;28;20062;-78
2024/01/13 06:23:35;;;;;;;28.85;8.82;;;;;;;-6.20;68.69;94262.72;5084789;28;20059;-78
2024/01/13 06:26:00;;;;;;;21.92;9.35;;;;;;;-6.13;68.79;94262.69;5084553;28;20388;-78
2024/01/13 06:28:25;;;;;;;25.50;9.45;;;;;;;-6.09;68.46;94259.50;5084675;28;20024;-77
2024/01/13 06:30:51;;;;;;;21.80;9.75;;;;;;;-6.01;68.71;94260.31;5084371;28;20024;-77
2024/01/13 06:33:16;;;;;;;25.95;10.48;;;;;;;-6.01;68.36;94244.75;5083469;28;20311;-78
2024/01/13 06:35:42;;;;;;;20.95;8.93;;;;;;;-5.94;67.96;94232.50;5084459;28;20016;-78
2024/01/13 06:38:07;;;;;;;21.52;8.73;;;;;;;-5.79;68.00;94240.09;5085410;28;20017;-78
2024/01/13 06:40:33;;;;;;;29.17;9.27;;;;;;;-5.89;67.31;94249.09;5084768;28;20016;-78
2024/01/13 06:42:58;;;;;;;23.25;9.20;;;;;;;-5.87;67.71;94260.06;5084427;28;20125;-78
2024/01/13 06:45:23;;;;;;;24.10;9.35;;;;;;;-5.86;67.51;94248.69;5083908;28;20196;-77
2024/01/13 06:47:49;;;;;;;25.98;9.10;;;;;;;-5.99;67.19;94248.72;5083862;28;20021;-77
2024/01/13 06:50:14;;;;;;;29.40;9.32;;;;;;;-5.88;67.93;94255.09;5084028;28;20027;-77
2024/01/13 06:52:39;;;;;;;22.48;8.98;;;;;;;-5.80;67.26;94254.88;5083762;28;20012;-77
2024/01/13 06:55:07;;;;;;;24.00;10.07;;;;;;;-5.70;67.35;94254.44;5083550;28;20033;-78
2024/01/13 06:57:33;;;;;;;27.73;9.85;;;;;;;-5.61;67.20;94265.44;5083809;28;20039;-78
2024/01/13 06:59:58;;;;;;;22.48;8.98;;;;;;;-5.54;66.36;94267.00;5083766;28;20025;-76
2024/01/13 07:02:23;;;;;;;26.65;9.57;;;;;;;-5.56;66.58;94284.59;5083530;28;20115;-78
2024/01/13 07:04:52;;;;;;;23.92;9.20;;;;;;;-5.48;66.61;94276.56;5083868;28;20200;-78
2024/01/13 07:07:17;;;;;;;27.17;9.38;;;;;;;-5.51;66.53;94271.81;5083802;28;20050;-78
2024/01/13 07:09:43;;;;;;;25.80;10.07;;;;;;;-5.45;66.52;94278.78;5083629;28;20020;-77
2024/01/13 07:12:09;;;;;;;20.60;9.02;;;;;;;-5.52;66.83;94301.38;5083239;28;20044;-77
2024/01/13 07:14:35;;;;;;;25.07;9.17;;;;;;;-5.48;66.64;94296.56;5083366;28;20192;-78
2024/01/13 07:17:00;;;;;;;21.30;9.20;;;;;;;-5.34;66.84;94285.16;5083537;28;20170;-77
2024/01/13 07:19:26;;;;;;;24.58;10.07;;;;;;;-5.34;66.91;94281.75;5083308;28;20227;-78
2024/01/13 07:21:51;;;;;;;21.90;9.45;;;;;;;-5.49;66.61;94300.19;5083976;28;20016;-79
2024/01/13 07:24:16;;;;;;;27.38;9.55;;;;;;;-5.39;67.17;94302.34;5084351;28;20066;-77
2024/01/13 07:26:44;;;;;;;32.92;10.55;;;;;;;-5.43;67.61;94283.78;5084716;28;20017;-78
2024/01/13 07:29:09;;;;;;;25.00;10.05;;;;;;;-5.47;67.18;94288.56;5085243;28;20223;-79
2024/01/13 07:31:35;;;;;;;28.48;10.82;;;;;;;-5.48;67.40;94294.75;5085848;28;20095;-78
2024/01/13 07:34:01;;;;;;;27.67;9.38;;;;;;;-5.55;67.03;94308.78;5085230;28;20131;-78
2024/01/13 07:36:26;;;;;;;23.92;9.73;;;;;;;-5.54;67.98;94305.16;5083552;28;20036;-80
2024/01/13 07:38:52;;;;;;;24.63;9.70;;;;;;;-5.54;67.82;94303.38;5083829;28;20078;-79
2024/01/13 07:41:17;;;;;;;24.95;10.25;;;;;;;-5.58;67.65;94296.97;5083449;28;20023;-78
2024/01/13 07:43:45;;;;;;;22.92;10.02;;;;;;;-5.51;68.05;94305.56;5083510;28;20033;-78
2024/01/13 07:46:12;;;;;;;27.90;11.60;;;;;;;-5.36;68.25;94294.16;5083667;28;20013;-76
2024/01/13 07:48:38;;;;;;;26.77;10.32;;;;;;;-5.23;68.25;94291.53;5083632;28;20020;-76
2024/01/13 07:51:04;;;;;;;25.83;9.52;;;;;;;-5.16;67.25;94297.50;5083467;28;20092;-78
2024/01/13 07:53:29;;;;;;;19.48;9.57;;;;;;;-5.33;67.48;94298.94;5083380;28;20024;-77
2024/01/13 07:55:55;;;;;;;27.00;11.95;;;;;;;-5.36;68.23;94307.13;5083326;28;20069;-77
2024/01/13 07:58:20;;;;;;;25.95;10.43;;;;;;;-5.46;68.42;94305.75;5083379;28;20040;-78
2024/01/13 08:00:45;;;;;;;21.52;8.30;;;;;;;-5.44;68.22;94301.16;5083770;28;20027;-77
2024/01/13 08:03:11;;;;;;;29.60;10.90;;;;;;;-5.34;68.54;94286.94;5083632;28;20046;-79
2024/01/13 08:05:36;;;;;;;26.02;10.00;;;;;;;-5.16;68.40;94294.09;5083703;28;20311;-78
2024/01/13 08:08:02;;;;;;;24.40;9.50;;;;;;;-5.10;67.35;94283.69;5083713;28;20150;-77
2024/01/13 08:10:27;;;;;;;23.85;9.40;;;;;;;-5.09;66.11;94295.69;5084287;28;20023;-77
2024/01/13 08:12:53;;;;;;;21.25;8.80;;;;;;;-5.16;66.36;94276.69;5084194;28;20238;-78
2024/01/13 08:15:19;;;;;;;21.83;8.80;;;;;;;-5.06;65.27;94286.66;5084153;28;20274;-77
2024/01/13 08:17:44;;;;;;;19.40;7.72;;;;;;;-4.96;65.36;94288.84;5084394;28;20016;-78
2024/01/13 08:20:10;;;;;;;15.05;6.55;;;;;;;-4.86;64.62;94286.59;5084102;28;20020;-77
2024/01/13 08:22:35;;;;;;;20.10;8.82;;;;;;;-4.75;63.52;94298.13;5084734;28;20029;-79
2024/01/13 08:25:01;;;;;;;12.13;4.68;;;;;;;-4.69;62.59;94279.91;5084591;28;20079;-78
2024/01/13 08:27:26;;;;;;;13.93;6.57;;;;;;;-4.72;62.41;94280.31;5083311;28;20074;-78
2024/01/13 08:29:52;;;;;;;12.82;5.85;;;;;;;-4.65;61.84;94288.88;5082717;28;20047;-78
2024/01/13 08:32:17;;;;;;;18.05;7.15;;;;;;;-4.58;62.57;94307.06;5082402;28;20024;-77
2024/01/13 08:34:43;;;;;;;20.08;6.90;;;;;;;-4.65;62.73;94301.88;5082245;28;20054;-76
2024/01/13 08:37:09;;;;;;;12.35;6.55;;;;;;;-4.59;62.86;94302.88;5082462;28;20204;-77
2024/01/13 08:39:35;;;;;;;19.90;8.60;;;;;;;-4.51;63.21;94279.19;5082680;28;20459;-79
2024/01/13 08:42:00;;;;;;;19.17;7.50;;;;;;;-4.40;63.12;94282.94;5082416;28;20024;-78
2024/01/13 08:44:26;;;;;;;19.30;8.85;;;;;;;-4.40;62.24;94303.75;5082748;28;20043;-79
2024/01/13 08:46:51;;;;;;;15.90;7.95;;;;;;;-4.44;62.95;94292.16;5082496;28;20039;-79
2024/01/13 08:49:17;;;;;;;14.73;6.30;;;;;;;-4.41;61.95;94296.97;5083516;28;20025;-79
2024/01/13 08:51:42;;;;;;;17.67;6.28;;;;;;;-4.43;61.44;94291.97;5082753;28;20040;-79
2024/01/13 08:54:07;;;;;;;22.90;8.25;;;;;;;-4.41;61.92;94289.16;5082523;28;20028;-79
2024/01/13 08:56:34;;;;;;;24.63;6.75;;;;;;;-4.37;62.59;94292.16;5083010;28;20021;-79
2024/01/13 08:59:01;;;;;;;12.48;6.78;;;;;;;-4.30;61.58;94257.25;5086239;28;20226;-79
2024/01/13 09:01:26;;;;;;;18.00;6.68;;;;;;;-4.21;61.36;94236.16;5086555;28;20021;-80
2024/01/13 09:03:52;;;;;;;12.63;5.78;;;;;;;-4.12;60.67;94232.31;5086343;28;20274;-80
2024/01/13 09:06:17;;;;;;;13.38;5.47;;;;;;;-4.24;61.15;94243.38;5086690;28;20036;-79
2024/01/13 09:08:42;;;;;;;16.73;6.63;;;;;;;-4.11;60.95;94234.69;5086319;28;20058;-80
2024/01/13 09:11:09;;;;;;;11.52;6.18;;;;;;;-4.11;61.01;94239.91;5086349;28;20322;-80
2024/01/13 09:13:34;;;;;;;15.23;6.40;;;;;;;-4.17;60.20;94239.94;5086343;28;20028;-80
2024/01/13 09:16:00;;;;;;;13.98;6.68;;;;;;;-4.04;59.86;94219.81;5085523;28;20052;-79
2024/01/13 09:18:25;;;;;;;13.88;6.55;;;;;;;-3.96;60.79;94223.94;5085629;28;20250;-79
2024/01/13 09:20:51;;;;;;;16.95;6.97;;;;;;;-3.83;60.12;94217.81;5085495;28;20020;-79
2024/01/13 09:23:17;;;;;;;18.90;6.97;;;;;;;-3.71;60.66;94233.53;5084131;28;20036;-80
2024/01/13 09:25:42;;;;;;;13.95;6.50;;;;;;;-3.98;60.58;94241.59;5085516;28;20031;-78
2024/01/13 09:28:07;;;;;;;20.02;7.53;;;;;;;-3.97;60.67;94217.13;5085667;28;20207;-80
2024/01/13 09:30:33;;;;;;;16.27;6.78;;;;;;;-3.84;61.80;94240.47;5085091;28;20200;-80
2024/01/13 09:32:58;;;;;;;19.55;7.90;;;;;;;-3.88;60.85;94202.84;5085256;28;20021;-80
2024/01/13 09:35:24;;;;;;;20.05;7.25;;;;;;;-3.74;61.37;94198.31;5085130;28;20345;-81
2024/01/13 09:37:49;;;;;;;16.50;6.68;;;;;;;-3.83;60.71;94200.41;5083747;28;20029;-76
2024/01/13 09:40:17;;;;;;;14.68;7.03;;;;;;;-3.68;61.43;94217.50;5085184;28;20076;-77
2024/01/13 09:43:19;;;;;;;18.92;7.50;;;;;;;-3.87;60.42;94214.88;5084918;28;20091;-74
2024/01/13 09:45:49;;;;;;;17.98;7.28;;;;;;;-3.91;61.53;94197.25;5072926;28;20036;-73
2024/01/13 09:48:18;;;;;;;13.27;6.43;;;;;;;-3.86;59.04;94200.81;5084631;28;20348;-76
2024/01/13 09:50:47;;;;;;;15.75;7.35;;;;;;;-3.85;59.54;94188.59;5084758;28;20023;-75
2024/01/13 09:53:26;;;;;;;15.57;7.28;;;;;;;-3.66;59.55;94203.22;5084854;28;20020;-73
2024/01/13 09:55:57;;;;;;;14.13;5.63;;;;;;;-3.76;58.93;94196.94;5084561;28;20029;-72
2024/01/13 09:58:22;;;;;;;14.60;6.78;;;;;;;-3.58;58.88;94181.31;5084444;28;20016;-79
2024/01/13 10:00:49;;;;;;;13.77;6.55;;;;;;;-3.49;58.83;94193.03;5084760;28;20036;-74
2024/01/13 10:03:14;;;;;;;15.85;6.43;;;;;;;-3.31;59.32;94173.19;5084766;28;20020;-75
2024/01/13 10:05:40;;;;;;;9.93;4.90;;;;;;;-3.39;58.18;94178.69;5084803;28;20028;-73
2024/01/13 10:08:05;;;;;;;16.08;6.22;;;;;;;-3.39;59.33;94163.06;5083547;28;20064;-73
2024/01/13 10:10:32;;;;;;;16.73;7.18;;;;;;;-3.35;58.51;94157.19;5083856;28;20454;-75
2024/01/13 10:12:57;;;;;;;12.35;5.75;;;;;;;-3.44;58.87;94141.06;5084164;28;20032;-72
2024/01/13 10:15:23;;;;;;;15.23;7.10;;;;;;;-3.33;59.44;94146.53;5084193;28;20100;-76
2024/01/13 10:17:52;;;;;;;16.48;6.72;;;;;;;-3.18;60.39;94139.13;5084200;28;20043;-73
2024/01/13 10:20:18;;;;;;;20.05;7.93;;;;;;;-3.04;58.58;94134.53;5084016;28;20208;-73
2024/01/13 10:22:43;;;;;;;16.98;7.28;;;;;;;-3.21;58.73;94138.78;5082907;28;20099;-74
2024/01/13 10:25:09;;;;;;;16.10;7.05;;;;;;;-3.13;58.49;94122.84;5084209;28;20080;-74
2024/01/13 10:27:38;;;;;;;17.85;7.55;;;;;;;-3.26;59.46;94114.16;5084129;28;20029;-73
2024/01/13 10:30:10;;;;;;;14.60;6.45;;;;;;;-3.27;59.10;94124.81;5084011;28;20052;-73
2024/01/13 10:32:36;;;;;;;17.60;6.55;;;;;;;-3.13;59.77;94120.22;5083768;28;20040;-73
2024/01/13 10:35:01;;;;;;;20.20;6.65;;;;;;;-3.27;58.99;94122.22;5083732;28;20037;-73
2024/01/13 10:37:27;;;;;;;19.88;7.93;;;;;;;-3.34;60.73;94118.88;5083861;28;20032;-73
2024/01/13 10:39:54;;;;;;;14.85;6.93;;;;;;;-3.36;59.49;94120.91;5083767;28;20024;-73
2024/01/13 10:42:25;;;;;;;16.65;7.28;;;;;;;-3.37;59.91;94124.53;5083436;28;20042;-73
2024/01/13 10:44:57;;;;;;;13.40;7.18;;;;;;;-3.35;59.38;94120.69;5083795;28;20219;-74
2024/01/13 10:47:29;;;;;;;20.17;8.02;;;;;;;-3.28;59.78;94113.59;5083425;28;20028;-73
2024/01/13 10:49:56;;;;;;;16.10;6.97;;;;;;;-3.31;60.12;94108.03;5083563;28;20070;-72
2024/01/13 10:52:32;;;;;;;16.10;6.72;;;;;;;-3.27;59.28;94109.19;5082328;28;20020;-73
2024/01/13 10:55:01;;;;;;;13.57;6.10;;;;;;;-3.27;58.92;94106.56;5083290;28;20219;-73
2024/01/13 10:57:28;;;;;;;14.40;7.20;;;;;;;-3.32;59.30;94127.28;5083200;28;20027;-73
2024/01/13 10:59:54;;;;;;;18.35;7.72;;;;;;;-3.41;58.51;94126.78;5083322;28;20021;-73
2024/01/13 11:02:20;;;;;;;19.35;7.45;;;;;;;-3.37;58.59;94101.88;5083117;28;20061;-73
2024/01/13 11:04:46;;;;;;;15.98;6.88;;;;;;;-3.31;58.17;94113.25;5083187;28;20020;-73
2024/01/13 11:07:12;;;;;;;16.23;7.40;;;;;;;-3.28;59.61;94111.00;5083249;28;20036;-73
2024/01/13 11:09:39;;;;;;;11.07;6.03;;;;;;;-3.26;58.27;94126.38;5082737;28;20314;-73
2024/01/13 11:12:16;;;;;;;15.20;7.70;;;;;;;-3.15;58.54;94104.78;5083004;28;20086;-72
2024/01/13 11:14:53;;;;;;;17.60;7.57;;;;;;;-3.09;58.69;94111.72;5083088;28;20031;-73
2024/01/13 11:17:19;;;;;;;18.33;7.32;;;;;;;-3.12;57.95;94086.09;5082783;28;20078;-73